Dennison, OH (44621)

11:33 PM EDT on July 25, 2016 (GMT -0400)
Clever | | Change Station

Elev 892 ft 40.47 °N, 81.42 °W | Updated 40 minutes ago

Clear
Clear
78 °F
Feels Like 78 °F
N
0
Wind Variable Wind from North

Today
High -- | Low -- °F
--% Chance of Precip.
Yesterday
High -- | Low -- °F
Precip. -- in
Pressure 29.96 in
Visibility 10.0 miles
Clouds Clear
Dew Point 66 °F
Humidity 66%
Rainfall 0.00 in
Snow Depth Not available.
6:16 AM 8:46 PM
Waning Gibbous, 59% visible
METAR KPHD 260253Z AUTO 00000KT 10SM CLR 26/19 A2998 RMK AO2 SLP143 T02560189 51010
Pressure 29.96 in
Visibility 10.0 miles
Clouds Clear
Dew Point 66 °F
Humidity 66%
Rainfall 0.00 in
Snow Depth Not available.
6:16 AM 8:46 PM
Waning Gibbous, 59% visible
METAR KPHD 260253Z AUTO 00000KT 10SM CLR 26/19 A2998 RMK AO2 SLP143 T02560189 51010
Record highs are possible for parts of the Northeast Monday and Tuesday, as parts of the central U.S. take a little breather from the worst of summer's dog day heat.

Expansive high pressure in the upper atmosphere will focus on parts of the East and West this week, sending heat indices well into the triple digits from the Mid-Atlantic states into the South.

10-Day Weather Forecast

Almanac

Astronomy

Jul. 25, 2016 Rise Set
Actual Time
Civil Twilight
Nautical Twilight
Astronomical Twilight
Moon
Length of Visible Light
Length of Day
Tomorrow will be .
, % of the Moon is Illuminated

Today's Extremes

State Highs State Lows

Community

WunderPhotos

Upload Photos

1,927,522 photos uploaded!

WunderBlog® & News

Nearby

Air Quality

  Air Quality AQ Index Pollutant
Not available.

Snow Depth

Station Depth Elevation

Earthquake Activity

City Distance Mag. Time & Date
Minimum magnitude displayed is 2.5.

Coastal Water Temperatures

Place Temperature

Stations

Nearby Weather Stations

Station Location Temp. Windchill Dew Point Humidity Wind Precip. Elev Updated Type
                   

Watches & Warnings

There are currently no watches in effect.